Letzte erfasste Runde: - - - -
Platz Datum Fahrer Zeit Diff Fahrzeug Session Runden
- - Theoretische Bestzeit - - - - -
1 10.09.2017 Sebastian Schmalenbach 1:47.602 - McLaren MP4-12C GT3 Qualifying 50
2 08.09.2017 Patrick Pichler 1:47.915 0.313 McLaren MP4-12C GT3 Qualifying 20
3 08.09.2017 Jan Schwitter 1:48.426 0.824 Ferrari 488 GT3 Qualifying 37
4 10.09.2017 Jan Sentkowski 1:48.439 0.837 Ferrari 488 GT3 Qualifying 17
5 10.09.2017 Markus Papenbrock 1:48.464 0.862 Mercedes-Benz AMG GT3 Qualifying 43
6 10.09.2017 Yannik Danisch 1:48.670 1.068 Ferrari 488 GT3 Qualifying 32
7 10.09.2017 Andre Rajkovic 1:48.698 1.096 Ferrari 488 GT3 Qualifying 31
8 10.09.2017 Jan-Eric Hoffarth 1:48.700 1.098 Mercedes-Benz AMG GT3 Qualifying 19
9 04.09.2017 Marcel Fritsch 1:48.700 1.098 Mercedes-Benz AMG GT3 Qualifying 43
10 10.09.2017 Niclas Laubisch 1:48.715 1.113 Ferrari 488 GT3 Qualifying 39
11 10.09.2017 Sascha Bürger 1:48.847 1.245 Ferrari 488 GT3 Qualifying 59
12 10.09.2017 Lars Hung 1:48.860 1.258 Ferrari 488 GT3 Qualifying 37
13 10.09.2017 Stephan Ebert 1:48.882 1.280 Mercedes-Benz AMG GT3 Qualifying 48
14 08.09.2017 Florian Kappel 1:48.921 1.319 Ferrari 488 GT3 Qualifying 7
15 10.09.2017 Sascha Landgraf 1:49.049 1.447 BMW Z4 GT3 Qualifying 37
16 10.09.2017 DanielSchuech 1:49.070 1.468 McLaren MP4-12C GT3 Qualifying 8
17 10.09.2017 Marcel Hartenberg 1:49.137 1.535 Mercedes-Benz AMG GT3 Qualifying 22
18 08.09.2017 Christian Bug 1:49.147 1.545 Mercedes-Benz AMG GT3 Qualifying 41
19 10.09.2017 Christoph Klawiter 1:49.166 1.564 Mercedes-Benz AMG GT3 Qualifying 65
20 10.09.2017 Jens Haase 1:49.182 1.580 Ferrari 488 GT3 Qualifying 10
21 08.09.2017 Ersin Cihan 1:49.260 1.658 Mercedes-Benz AMG GT3 Qualifying 20
22 08.09.2017 Olli Kwoka 1:49.492 1.890 McLaren MP4-12C GT3 Qualifying 74
23 10.09.2017 Pawel Rybak 1:49.658 2.056 Mercedes-Benz AMG GT3 Qualifying 32
24 08.09.2017 Michael Endres 1:49.672 2.070 Mercedes-Benz AMG GT3 Qualifying 13
25 10.09.2017 Jens Nixdorf 1:49.720 2.118 McLaren MP4-12C GT3 Qualifying 27
26 10.09.2017 Dominik Bauer 1:49.749 2.147 Ferrari 488 GT3 Qualifying 32
27 10.09.2017 Rick Born 1:49.800 2.198 Ferrari 488 GT3 Qualifying 24
28 08.09.2017 Alex Düttmann 1:49.939 2.337 Mercedes-Benz AMG GT3 Qualifying 46
29 08.09.2017 Andre Dünnbier 1:50.025 2.423 Mercedes-Benz AMG GT3 Qualifying 34
30 10.09.2017 Daniel Sterna 1:50.033 2.431 Ferrari 488 GT3 Qualifying 11
31 04.09.2017 Jan Fecker 1:50.056 2.454 Mercedes-Benz AMG GT3 Qualifying 24
32 10.09.2017 Jakob Schulze 1:50.944 3.342 Ferrari 488 GT3 Qualifying 7
33 10.09.2017 Sven Philipp 1:51.147 3.545 Mercedes-Benz AMG GT3 Qualifying 3
34 10.09.2017 Patrick Große 1:51.168 3.566 BMW Z4 GT3 Qualifying 25
35 27.11.2020 Patrick Schillikowski 1:55.901 8.299 Chevrolet Corvette C8.R GTE Qualifying 12
36 27.11.2020 Tobias Ogrodnik 1:56.255 8.653 Ford GTE Qualifying 22
37 27.11.2020 Christopher Heimann 1:56.435 8.833 BMW M8 GTE Qualifying 8
38 27.11.2020 Daniel Langehegermann 1:56.561 8.959 BMW M8 GTE Qualifying 28
39 27.11.2020 René Seidemann 1:56.683 9.081 BMW M8 GTE Qualifying 21
40 27.11.2020 René Ribaucourt 1:56.858 9.256 Chevrolet Corvette C8.R GTE Qualifying 27
41 27.11.2020 Rainer Giese 1:56.909 9.307 Porsche 911 RSR 2018 GTE Qualifying 79
42 27.11.2020 Michael Herrmann 1:57.027 9.425 BMW M8 GTE Qualifying 50
43 27.11.2020 Pars Malkoc 1:57.290 9.688 Chevrolet Corvette C8.R GTE Qualifying 32
44 27.11.2020 Uwe Länger 1:57.366 9.764 Chevrolet Corvette C8.R GTE Qualifying 39

SERVER

0 / 61
virtualracing.org #1 GTM
Training 1Lime Rock Park -- Uphill Chicane
0 / 81
virtualracing.org #3 FS
Training 1Lime Rock Park -- Uphill Chicane
0 / 81
virtualracing.org #4 LSM
Training 1Spa-Francorchamps Endurance
0 / 34
virtualracing.org #5 VRF1S
Training 1Zandvoort 2021
0 / 34
virtualracing.org #6 VRCS
Training 1Donington Park National Circuit
0 / 81
virtualracing.org #P1 BTCC
Training 1Silverstone National
0 / 81
virtualracing.org #P2 CA
Training 1Anglesey Circuit - Coastal
0 / 34
virtualracing.org #P3 Mini
Training 1Le Grand Circuit 1967
0 / 33
virtualracing.org #P4 IR18
Training 1Louisiana -- Indy Grand Prix
0/31
virtualracing.org#4 GTC Training Standard
TrainingDaytona International Speedway - Road Course
0/31
virtualracing.org#5 GTC Training A
TrainingDaytona International Speedway - Road Course
0/24
virtualracing.org#30 ALT Training
TrainingFuji Speedway - Grand Prix Circuit 1968
0/32
virtualracing.org#33 GTC Starttest
unbekanntDaytona International Speedway - Road Course